Bever, Belgium
Current Conditions -  °F | °C
As of 8:20 AM on Sunday 23 Nov 2014 (Local Time) from EBBR Reporting Station
Clear Clear  
Wind Chill: 50°   Ceiling: Unl
Heat Index: 50°   Visibility: 6mi
Dew Point: 46°   Wind: 10mph
Humidity: 87%   Direction: 170°S
Pressure: 30"   Gusts: NA
Location:  50.92°N, 4.32°E
Report Text: EBBR 230720Z 17009KT CAVOK 10/08 Q1016 NOSIG
Loading
Personal Weather Stations






























Interactive Weather Map New forecast layout! Learn more

10-Day Weather Forecast

Advertisements
Track Severe Weather on mobile